Anson, Maine
Current Conditions -  °F | °C
As of 11:15 AM on Monday 24 Nov 2014 (Local Time) from KWVL Reporting Station
Overcast Overcast  
Wind Chill: 55°   Ceiling: 800
Heat Index: 55°   Visibility: 5mi
Dew Point: 52°   Wind: 10mph
Humidity: 88%   Direction: 170°S
Pressure: 29.66"   Gusts: 23mph
Location:  44.8°N, 69.89°W
Report Text: KWVL 241615Z 17009G20KT 120V200 5SM BKN008 OVC014 13/11 A2966 RMK AO1 P0011
Loading
Personal Weather Stations






























Interactive Weather Map New forecast layout! Learn more

10-Day Weather Forecast

Advertisements
Track Severe Weather on mobile